02:50 MTB Tschirgantrunde gross
Ort Moetz Datum 04.09.2016 08:58:49
Kategorie MTB
Distanz 69,11 Kilometer Steigung 744,0 Meter Gefälle -745,0 Meter
Gesamt Zeit 03:03:42 Aktiv 02:50:01 Pause 00:13:41
Durchs. Tempo 24,4 km/h Tempo max. 45,2 km/h Tempo min. 7,1 km/h
Kalorien 0 Durchs. HF 128 BPM HF max. 153 BPM
Wetter 21 °C PartClouds Min/Max: 19,6 °C/23,4 °C; Druck: 1017,9 mbar; Rel. Feuchte: 65,2%; Taupunkt: 14,7 °C; Windgeschwindigkeit: 1,8 km/h; Niederschlag: 0,0mm
Ausrüstung Bontrager - Race X Lite MTB
Schwalbe - Nobby Nic vorne
Schwalbe - Racing Ralph hinten
Shimano - HG-XTR 7701
Specialized - Stumpjumper Comp
Notiz Tschirgantrunde gross: Moetz - Radlweg - Imst - Dormitz - Arzkasten - Wildermieming - Telfs - Moetz ... trocken, nicht heiss, im Inntal Gegenwind, recht locker ... garmin connect
Splits
Distanz (km) Gesamt Zeit Split Zeit Split Tempo Split Tempo Höhenprofil (m)
1,00 00:02:23 00:02:23 00:02:23 25,1 -1,38
2,00 00:04:35 00:02:12 00:02:12 27,3 2,80
3,00 00:06:51 00:02:16 00:02:17 26,3 5,76
4,00 00:08:59 00:02:07 00:02:08 28,1 0,54
5,00 00:11:12 00:02:12 00:02:12 27,2 -1,56
6,00 00:13:24 00:02:11 00:02:12 27,3 3,46
7,00 00:15:42 00:02:18 00:02:18 26,0 12,01
8,00 00:19:24 00:03:41 00:03:42 16,2 47,77
9,00 00:21:48 00:02:23 00:02:24 25,0 -8,56
10,00 00:23:32 00:01:44 00:01:44 34,6 -16,36
11,00 00:25:21 00:01:49 00:01:49 32,9 -15,79
12,00 00:28:11 00:02:49 00:02:50 21,2 24,14
13,00 00:30:44 00:02:33 00:02:33 23,5 -3,28
14,00 00:33:53 00:03:09 00:03:09 19,0 13,10
15,00 00:36:01 00:02:07 00:02:08 28,2 -9,84
16,00 00:38:27 00:02:26 00:02:27 24,6 8,31
17,00 00:41:00 00:02:32 00:02:32 23,7 -1,88
18,00 00:43:18 00:02:18 00:02:19 26,0 3,61
19,00 00:46:14 00:02:55 00:02:55 20,5 -3,10
20,00 00:48:32 00:02:18 00:02:19 25,9 -1,96
21,00 00:50:52 00:02:19 00:02:20 25,8 9,56
22,00 00:53:24 00:02:31 00:02:32 23,7 11,06
23,00 00:56:20 00:02:56 00:02:56 20,4 19,55
24,00 00:58:37 00:02:17 00:02:17 26,2 4,76
25,00 01:01:22 00:02:44 00:02:45 21,9 15,33
26,00 01:04:14 00:02:51 00:02:52 20,9 9,65
27,00 01:07:21 00:03:06 00:03:07 19,3 28,45
28,00 01:09:43 00:02:22 00:02:23 25,3 -3,45
29,00 01:12:46 00:03:03 00:03:03 19,6 19,49
30,00 01:15:06 00:02:19 00:02:19 25,8 0,31
31,00 01:17:54 00:02:48 00:02:49 21,3 9,47
32,00 01:19:48 00:01:54 00:01:54 31,6 -20,00
33,00 01:22:28 00:02:39 00:02:39 22,6 -1,49
34,00 01:24:43 00:02:15 00:02:16 26,5 7,95
35,00 01:28:09 00:03:25 00:03:26 17,5 22,76
36,00 01:31:25 00:03:15 00:03:16 18,4 36,32
37,00 01:35:18 00:03:53 00:03:53 15,4 54,47
38,00 01:40:50 00:05:32 00:05:32 10,8 85,77
39,00 01:48:09 00:07:18 00:07:19 8,2 108,14
40,00 01:51:50 00:03:40 00:03:41 16,3 24,09
41,00 01:53:51 00:02:01 00:02:01 29,7 -27,19
42,00 01:55:18 00:01:27 00:01:27 41,2 -57,20
43,00 01:56:46 00:01:27 00:01:28 41,1 -54,32
44,00 01:58:22 00:01:35 00:01:36 37,6 -41,76
45,00 02:00:24 00:02:02 00:02:03 29,3 -16,85
46,00 02:02:33 00:02:08 00:02:09 27,9 -31,99
47,00 02:04:30 00:01:56 00:01:56 30,9 -21,93
48,00 02:06:41 00:02:11 00:02:12 27,3 2,20
49,00 02:08:57 00:02:15 00:02:15 26,6 -21,11
50,00 02:11:12 00:02:15 00:02:15 26,7 6,51
51,00 02:13:15 00:02:02 00:02:03 29,3 -3,78
52,00 02:15:06 00:01:51 00:01:52 32,3 -20,80
53,00 02:16:55 00:01:49 00:01:49 33,0 -23,26
54,00 02:18:39 00:01:43 00:01:44 34,6 -15,27
55,00 02:20:25 00:01:45 00:01:46 34,0 -44,66
56,00 02:22:09 00:01:44 00:01:44 34,5 -87,31
57,00 02:23:55 00:01:45 00:01:45 34,2 -49,19
58,00 02:26:08 00:02:13 00:02:14 26,9 -19,93
59,00 02:28:22 00:02:13 00:02:14 26,9 -1,05
60,00 02:30:33 00:02:10 00:02:10 27,7 3,42
61,00 02:32:48 00:02:15 00:02:16 26,6 2,13
62,00 02:35:01 00:02:13 00:02:13 27,0 7,02
63,00 02:37:45 00:02:43 00:02:44 22,0 3,02
64,00 02:39:50 00:02:04 00:02:04 28,9 -1,56
65,00 02:41:54 00:02:04 00:02:04 28,9 0,42
66,00 02:43:57 00:02:02 00:02:03 29,4 2,19
67,00 02:46:02 00:02:05 00:02:05 28,7 1,37
68,00 02:47:55 00:01:53 00:01:53 31,9 0,18
68,94 02:50:01 00:02:05 00:02:13 27,0 10,35